Time;durP1;ratioP1;P1;durP2;ratioP2;P2;SDS_P1;SDS_P2;PMS_P1;PMS_P2;Temp;Humidity;BMP_temperature;BMP_pressure;BME280_temperature;BME280_humidity;BME280_pressure;Samples;Min_cycle;Max_cycle;Signal;HPM_P1;HPM_P2
2021/09/01 00:09:23;;;;;;;0.28;0.10;;;12.00;99.90;;;;;;20998006;28;20037;-45
2021/09/01 00:19:25;;;;;;;0.22;0.10;;;12.10;99.90;;;;;;20997678;28;20386;-46
2021/09/01 00:29:27;;;;;;;0.10;0.10;;;12.20;99.90;;;;;;20996943;28;20040;-45
2021/09/01 00:39:29;;;;;;;0.10;0.10;;;11.90;99.90;;;;;;20995603;28;20389;-44
2021/09/01 00:49:32;;;;;;;0.03;0.00;;;11.70;99.90;;;;;;20995014;28;20078;-47
2021/09/01 00:59:40;;;;;;;0.22;0.10;;;11.60;99.90;;;;;;20994222;28;20392;-44
2021/09/01 01:09:43;;;;;;;0.55;0.13;;;11.60;99.90;;;;;;20993765;28;20342;-47
2021/09/01 01:19:47;;;;;;;0.28;0.10;;;11.60;99.90;;;;;;20993509;28;20428;-46
2021/09/01 01:29:50;;;;;;;0.10;0.10;;;11.60;99.90;;;;;;20991917;28;20029;-46
2021/09/01 01:39:53;;;;;;;0.63;0.10;;;11.70;99.90;;;;;;20991712;28;20048;-45
2021/09/01 01:49:55;;;;;;;0.47;0.10;;;11.60;99.90;;;;;;20990126;28;20547;-45
2021/09/01 01:59:56;;;;;;;0.00;0.00;;;11.50;99.30;;;;;;20988774;28;20083;-46
2021/09/01 02:09:59;;;;;;;0.10;0.10;;;11.60;98.80;;;;;;20989018;28;20036;-45
2021/09/01 02:20:02;;;;;;;0.10;0.00;;;11.70;98.10;;;;;;20988729;28;20032;-45
2021/09/01 02:30:05;;;;;;;0.20;0.10;;;11.70;98.80;;;;;;20987942;28;20487;-50
2021/09/01 02:40:09;;;;;;;0.00;0.00;;;11.60;98.60;;;;;;20987216;28;20040;-47
2021/09/01 02:50:11;;;;;;;0.47;0.10;;;11.40;99.00;;;;;;20986973;28;20549;-47
2021/09/01 03:00:13;;;;;;;0.10;0.08;;;11.30;99.10;;;;;;20986810;28;20086;-46
2021/09/01 03:10:15;;;;;;;0.30;0.10;;;11.40;99.00;;;;;;20986175;28;20021;-44
2021/09/01 03:20:17;;;;;;;0.10;0.10;;;11.30;99.30;;;;;;20985789;28;20028;-46
2021/09/01 03:30:19;;;;;;;0.57;0.20;;;11.20;99.20;;;;;;20997492;28;20028;-44
2021/09/01 03:40:21;;;;;;;0.52;0.20;;;11.10;98.90;;;;;;21000744;28;20383;-46
2021/09/01 03:50:23;;;;;;;0.13;0.00;;;11.00;99.20;;;;;;21000049;28;20044;-46
2021/09/01 04:00:25;;;;;;;0.20;0.10;;;11.00;99.20;;;;;;20999216;28;20404;-46
2021/09/01 04:10:28;;;;;;;0.57;0.10;;;10.60;99.70;;;;;;20999165;28;20543;-49
2021/09/01 04:20:30;;;;;;;0.40;0.15;;;10.70;99.00;;;;;;20997273;28;20045;-47
2021/09/01 04:30:32;;;;;;;0.20;0.20;;;10.60;99.20;;;;;;20997000;28;20044;-45
2021/09/01 04:40:34;;;;;;;0.40;0.25;;;10.60;98.90;;;;;;20995639;28;20040;-47
2021/09/01 04:50:36;;;;;;;0.57;0.30;;;10.60;98.90;;;;;;20995861;28;20036;-47
2021/09/01 05:00:37;;;;;;;0.38;0.25;;;10.50;99.00;;;;;;20995682;28;20047;-46
2021/09/01 05:10:39;;;;;;;0.57;0.30;;;10.50;98.80;;;;;;20992374;28;20093;-45
2021/09/01 05:20:42;;;;;;;0.60;0.25;;;10.60;98.50;;;;;;20993081;28;20047;-44
2021/09/01 05:30:47;;;;;;;0.75;0.40;;;10.80;98.20;;;;;;20992425;28;20028;-48
2021/09/01 05:40:51;;;;;;;1.23;0.35;;;10.80;97.40;;;;;;20991335;28;20101;-46
2021/09/01 05:50:55;;;;;;;1.02;0.47;;;10.90;97.70;;;;;;20988696;28;20118;-47
2021/09/01 06:01:02;;;;;;;0.85;0.35;;;10.90;97.40;;;;;;20990163;28;20036;-45
2021/09/01 06:11:08;;;;;;;1.13;0.30;;;11.10;96.90;;;;;;20990109;28;20032;-45
2021/09/01 06:21:11;;;;;;;0.55;0.35;;;11.20;96.80;;;;;;20990641;28;20048;-44
2021/09/01 06:31:13;;;;;;;0.80;0.40;;;11.20;96.50;;;;;;20988510;28;20040;-46
2021/09/01 06:41:15;;;;;;;0.90;0.43;;;11.50;95.30;;;;;;20988295;28;20543;-45
2021/09/01 06:51:17;;;;;;;0.98;0.30;;;13.10;93.70;;;;;;20986767;28;20037;-47
2021/09/01 07:01:18;;;;;;;0.50;0.30;;;14.40;92.10;;;;;;20994527;28;20029;-45
2021/09/01 07:11:20;;;;;;;0.47;0.30;;;15.10;90.50;;;;;;21003382;28;20030;-46
2021/09/01 07:21:22;;;;;;;0.45;0.30;;;15.30;90.30;;;;;;21003628;28;20066;-48
2021/09/01 07:31:24;;;;;;;0.43;0.20;;;15.50;88.40;;;;;;21001438;28;20466;-49
2021/09/01 07:41:25;;;;;;;0.43;0.22;;;15.60;87.40;;;;;;21000485;28;20041;-47
2021/09/01 07:51:28;;;;;;;0.45;0.40;;;16.00;88.70;;;;;;21000313;28;20089;-46
2021/09/01 08:01:30;;;;;;;0.57;0.30;;;16.30;87.00;;;;;;20999185;28;20362;-51
2021/09/01 08:11:32;;;;;;;0.52;0.30;;;16.30;85.80;;;;;;20998529;28;20437;-48
2021/09/01 08:21:34;;;;;;;0.60;0.30;;;16.50;89.60;;;;;;20998917;28;20420;-46
2021/09/01 08:31:36;;;;;;;1.25;0.40;;;17.00;80.70;;;;;;20997562;28;20101;-47
2021/09/01 08:41:39;;;;;;;0.40;0.30;;;17.20;82.60;;;;;;20996071;28;20049;-47
2021/09/01 08:51:41;;;;;;;5.70;0.30;;;17.30;83.20;;;;;;20996030;28;20079;-44
2021/09/01 09:01:55;;;;;;;0.73;0.38;;;17.50;82.60;;;;;;20995243;28;20059;-47
2021/09/01 09:11:58;;;;;;;0.25;0.17;;;17.30;80.10;;;;;;20994656;28;20556;-49
2021/09/01 09:22:04;;;;;;;0.68;0.20;;;17.70;82.40;;;;;;20992750;28;20028;-47
2021/09/01 09:32:08;;;;;;;0.47;0.28;;;17.40;81.70;;;;;;20994016;28;20039;-47
2021/09/01 09:42:30;;;;;;;0.57;0.30;;;18.10;81.40;;;;;;20992092;28;20200;-50
2021/09/01 09:52:36;;;;;;;0.38;0.20;;;17.90;78.20;;;;;;20991419;28;20039;-46
2021/09/01 10:02:42;;;;;;;1.67;0.20;;;18.50;76.70;;;;;;20990305;28;20040;-48
2021/09/01 10:12:47;;;;;;;0.50;0.20;;;19.40;75.70;;;;;;20989413;28;20032;-49
2021/09/01 10:23:02;;;;;;;0.57;0.25;;;20.40;80.30;;;;;;20988698;28;20028;-47
2021/09/01 10:33:04;;;;;;;1.15;0.40;;;21.50;76.00;;;;;;20987130;28;20460;-48
2021/09/01 10:43:19;;;;;;;0.47;0.20;;;21.70;72.90;;;;;;20986965;28;20424;-48
2021/09/01 10:53:22;;;;;;;0.52;0.30;;;21.90;75.70;;;;;;20986990;28;20078;-51
2021/09/01 11:03:32;;;;;;;0.65;0.40;;;22.30;73.10;;;;;;20986691;28;20033;-46
2021/09/01 11:13:42;;;;;;;0.40;0.20;;;22.10;68.50;;;;;;20986250;28;20044;-47
2021/09/01 11:23:49;;;;;;;0.80;0.25;;;21.60;68.60;;;;;;20985820;28;20041;-49
2021/09/01 11:34:00;;;;;;;0.52;0.32;;;21.90;68.90;;;;;;20985415;28;20059;-51
2021/09/01 11:44:05;;;;;;;0.40;0.20;;;22.00;69.30;;;;;;20983299;28;20121;-49
2021/09/01 11:54:08;;;;;;;0.40;0.35;;;22.40;66.50;;;;;;21000149;28;20470;-50
2021/09/01 12:04:10;;;;;;;2.28;1.48;;;22.70;68.50;;;;;;20999354;28;20047;-50
2021/09/01 12:14:12;;;;;;;1.85;1.35;;;23.10;74.90;;;;;;20998542;28;20051;-49
2021/09/01 12:24:24;;;;;;;1.95;1.48;;;23.00;83.70;;;;;;20997839;28;20390;-48
2021/09/01 12:34:27;;;;;;;1.80;1.38;;;23.70;84.40;;;;;;20997159;28;20037;-48
2021/09/01 12:44:58;;;;;;;1.92;1.73;;;24.30;84.00;;;;;;20996283;28;20040;-53
2021/09/01 12:55:00;;;;;;;2.17;1.58;;;24.80;79.10;;;;;;20995314;28;20043;-51
2021/09/01 13:05:02;;;;;;;2.28;1.88;;;24.90;82.00;;;;;;20995561;28;20078;-50
2021/09/01 13:15:05;;;;;;;5.50;1.67;;;24.70;75.70;;;;;;20994878;28;20545;-49
2021/09/01 13:25:09;;;;;;;2.35;1.88;;;23.90;82.20;;;;;;20994236;28;20372;-49
2021/09/01 13:35:11;;;;;;;2.03;1.45;;;23.80;82.00;;;;;;20993561;28;20073;-51
2021/09/01 13:45:14;;;;;;;3.00;1.20;;;24.10;81.50;;;;;;20993805;28;20041;-47
2021/09/01 13:55:16;;;;;;;2.05;1.38;;;24.70;82.50;;;;;;20992207;28;20044;-48
2021/09/01 14:05:18;;;;;;;3.03;1.98;;;24.60;82.50;;;;;;20992159;28;20036;-52
2021/09/01 14:15:20;;;;;;;1.48;1.17;;;24.10;81.00;;;;;;20990496;28;20054;-52
2021/09/01 14:25:21;;;;;;;2.30;1.42;;;23.80;79.70;;;;;;20989612;28;20058;-50
2021/09/01 14:35:23;;;;;;;2.65;2.28;;;23.60;82.10;;;;;;20988798;28;20037;-49
2021/09/01 14:45:25;;;;;;;2.53;1.42;;;23.10;80.90;;;;;;20989408;28;20355;-48
2021/09/01 14:55:27;;;;;;;1.88;1.70;;;22.00;83.90;;;;;;20986890;28;20382;-52
2021/09/01 15:05:31;;;;;;;2.22;1.77;;;21.00;83.00;;;;;;20986718;28;20383;-48
2021/09/01 15:15:33;;;;;;;2.95;1.50;;;20.40;84.70;;;;;;20987778;28;20059;-48
2021/09/01 15:25:36;;;;;;;1.67;1.23;;;19.60;87.50;;;;;;20999554;28;20549;-49
2021/09/01 15:35:37;;;;;;;4.60;1.85;;;18.80;89.70;;;;;;21001831;28;20039;-50
2021/09/01 15:46:18;;;;;;;1.40;1.30;;;18.40;90.90;;;;;;21001868;28;20025;-53
2021/09/01 15:56:21;;;;;;;2.42;1.60;;;18.50;90.70;;;;;;21001047;28;20052;-49
2021/09/01 16:06:23;;;;;;;1.50;1.30;;;18.40;90.40;;;;;;21000359;28;20043;-49
2021/09/01 16:16:30;;;;;;;3.00;1.60;;;17.90;91.80;;;;;;20998911;28;20032;-50
2021/09/01 16:26:38;;;;;;;1.85;1.20;;;16.60;93.30;;;;;;21000622;28;20098;-48
2021/09/01 16:36:44;;;;;;;3.13;1.75;;;15.80;95.50;;;;;;20995539;28;20036;-46
2021/09/01 16:46:48;;;;;;;2.78;1.90;;;15.20;97.10;;;;;;20996546;28;20025;-49
2021/09/01 16:56:58;;;;;;;4.03;2.15;;;14.70;99.10;;;;;;20996181;28;20036;-49
2021/09/01 17:07:01;;;;;;;3.17;2.05;;;14.40;99.90;;;;;;20994863;28;20066;-48
2021/09/01 17:17:05;;;;;;;3.60;2.58;;;14.10;99.90;;;;;;20993796;28;20106;-49
2021/09/01 17:27:09;;;;;;;3.95;2.80;;;13.80;99.90;;;;;;20910017;28;20386;-48
2021/09/01 17:37:12;;;;;;;7.28;4.60;;;13.60;99.90;;;;;;20929771;28;20071;-47
2021/09/01 17:47:15;;;;;;;6.05;4.35;;;13.10;99.90;;;;;;20990873;28;20032;-47
2021/09/01 17:57:17;;;;;;;5.25;3.67;;;12.90;99.90;;;;;;20989961;28;20094;-46
2021/09/01 18:07:19;;;;;;;35.67;26.58;;;12.70;99.90;;;;;;20989389;28;20059;-48
2021/09/01 18:17:21;;;;;;;7.03;5.38;;;12.40;99.90;;;;;;20988744;28;20032;-48
2021/09/01 18:27:23;;;;;;;7.93;5.80;;;12.20;99.90;;;;;;20988377;28;20082;-47
2021/09/01 18:37:26;;;;;;;10.45;8.10;;;12.10;99.90;;;;;;20987437;28;20134;-49
2021/09/01 18:47:29;;;;;;;10.98;7.03;;;12.00;99.90;;;;;;20987545;28;20041;-48
2021/09/01 18:57:31;;;;;;;11.05;8.48;;;11.80;99.90;;;;;;20987190;28;20040;-47
2021/09/01 19:07:37;;;;;;;10.20;8.02;;;11.70;99.90;;;;;;20985979;28;20033;-47
2021/09/01 19:17:39;;;;;;;13.10;10.75;;;11.50;99.90;;;;;;20985914;28;20055;-45
2021/09/01 19:27:43;;;;;;;16.27;13.18;;;11.40;99.90;;;;;;20985248;28;20029;-47
2021/09/01 19:37:52;;;;;;;12.13;8.98;;;11.50;99.90;;;;;;20984936;28;20421;-49
2021/09/01 19:47:55;;;;;;;14.47;10.50;;;11.60;99.90;;;;;;20985159;28;20041;-50
2021/09/01 19:57:57;;;;;;;16.70;12.20;;;11.50;99.90;;;;;;20984189;28;20098;-49
2021/09/01 20:08:00;;;;;;;16.48;11.80;;;11.40;99.90;;;;;;20988409;28;20100;-52
2021/09/01 20:18:03;;;;;;;21.65;15.90;;;11.30;99.90;;;;;;20997522;28;20037;-46
2021/09/01 20:28:06;;;;;;;18.85;13.35;;;11.20;99.90;;;;;;20996606;28;20063;-46
2021/09/01 20:38:08;;;;;;;23.40;15.30;;;11.10;99.90;;;;;;20995615;28;20062;-47
2021/09/01 20:48:11;;;;;;;26.23;17.35;;;11.10;99.90;;;;;;20995824;28;20044;-46
2021/09/01 20:58:13;;;;;;;25.58;18.48;;;11.00;99.90;;;;;;20995261;28;20040;-46
2021/09/01 21:08:16;;;;;;;22.77;16.35;;;11.00;99.90;;;;;;20994396;28;20389;-49
2021/09/01 21:18:21;;;;;;;25.27;18.17;;;11.00;99.90;;;;;;20991323;28;20512;-46
2021/09/01 21:28:27;;;;;;;31.98;21.02;;;11.00;99.90;;;;;;20992716;28;20028;-47
2021/09/01 21:38:35;;;;;;;29.00;19.83;;;10.90;99.90;;;;;;20992051;28;20486;-48
2021/09/01 21:48:37;;;;;;;27.52;18.23;;;10.90;99.90;;;;;;20990521;28;20032;-46
2021/09/01 21:58:39;;;;;;;32.65;20.70;;;10.90;99.90;;;;;;20990281;28;20305;-50
2021/09/01 22:08:41;;;;;;;27.88;21.02;;;10.80;99.90;;;;;;20989589;28;20031;-48
2021/09/01 22:18:43;;;;;;;24.88;17.38;;;10.80;99.90;;;;;;20988745;28;20035;-48
2021/09/01 22:28:46;;;;;;;31.67;20.52;;;10.80;99.90;;;;;;20986407;28;20371;-46
2021/09/01 22:38:48;;;;;;;34.10;21.52;;;10.80;99.90;;;;;;20986486;28;20481;-46
2021/09/01 22:48:49;;;;;;;31.00;22.00;;;10.80;99.90;;;;;;20987664;28;20037;-46
2021/09/01 22:58:51;;;;;;;29.83;19.52;;;10.70;99.90;;;;;;20987279;28;20033;-46
2021/09/01 23:08:53;;;;;;;33.13;24.88;;;10.60;99.90;;;;;;20986363;28;20082;-46
2021/09/01 23:18:55;;;;;;;25.67;17.63;;;10.70;99.90;;;;;;20986098;28;20037;-46
2021/09/01 23:28:57;;;;;;;25.73;17.85;;;10.80;99.90;;;;;;20984270;28;20032;-48
2021/09/01 23:38:59;;;;;;;27.45;17.65;;;10.70;99.90;;;;;;20985640;28;20041;-48
2021/09/01 23:49:01;;;;;;;29.75;20.13;;;10.60;99.90;;;;;;20998725;28;20186;-46
2021/09/01 23:59:03;;;;;;;29.30;19.08;;;10.60;99.90;;;;;;20999737;28;20094;-47
